Metlakatla, Alaska
Current Conditions -  °F | °C
As of 5:16 AM on Wednesday 28 Jan 2015 (Local Time) from PAMM Reporting Station
Overcast Overcast  
Wind Chill: 36°   Ceiling: 3500
Heat Index: 43°   Visibility: 10mi
Dew Point: 34°   Wind: 13mph
Humidity: 70%   Direction: 120°ESE
Pressure: 30.22"   Gusts: 16mph
Location:  55.11°N, 131.58°W
Report Text: PAMM 281416Z AUTO 12011G14KT 10SM SCT027 BKN035 OVC060 06/01 A3022 RMK AO1
Loading
Personal Weather Stations






























Interactive Weather Map New forecast layout! Learn more

10-Day Weather Forecast

Advertisements
Track Severe Weather on mobile